createdAt,value
2022-07-26T00:01:38.955Z,100360.78
2022-07-26T00:04:44.337Z,100351.00
2022-07-26T00:07:49.601Z,100347.94
2022-07-26T00:10:56.186Z,100337.19
2022-07-26T00:14:02.059Z,100331.88
2022-07-26T00:17:07.748Z,100337.63
2022-07-26T00:20:13.133Z,100321.94
2022-07-26T00:23:19.557Z,100331.50
2022-07-26T00:26:26.310Z,100325.47
2022-07-26T00:29:31.614Z,100318.50
2022-07-26T00:32:37.665Z,100317.91
2022-07-26T00:35:42.974Z,100324.84
2022-07-26T00:38:48.265Z,100328.59
2022-07-26T00:41:54.993Z,100321.03
2022-07-26T00:45:00.248Z,100308.69
2022-07-26T00:48:06.634Z,100314.97
2022-07-26T00:51:11.753Z,100316.44
2022-07-26T00:54:18.856Z,100319.22
2022-07-26T00:57:25.814Z,100309.06
2022-07-26T01:00:31.548Z,100318.94
2022-07-26T01:03:39.644Z,100300.91
2022-07-26T01:06:45.377Z,100301.38
2022-07-26T01:09:51.781Z,100289.78
2022-07-26T01:12:58.279Z,100275.66
2022-07-26T01:16:04.449Z,100276.38
2022-07-26T01:19:09.891Z,100265.50
2022-07-26T01:22:16.374Z,100260.00
2022-07-26T01:25:31.327Z,100247.47
2022-07-26T01:28:40.600Z,100248.41
2022-07-26T01:31:46.137Z,100253.75
2022-07-26T01:34:51.460Z,100248.78
2022-07-26T01:37:57.961Z,100249.72
2022-07-26T01:41:03.097Z,100246.41
2022-07-26T01:44:09.134Z,100248.91
2022-07-26T01:47:14.990Z,100243.72
2022-07-26T01:50:20.512Z,100243.72
2022-07-26T01:53:27.184Z,100232.97
2022-07-26T01:56:32.669Z,100242.50
2022-07-26T01:59:37.861Z,100230.38
2022-07-26T02:02:43.119Z,100247.38
2022-07-26T02:05:48.379Z,100242.59
2022-07-26T02:08:54.917Z,100246.84
2022-07-26T02:12:00.747Z,100237.81
2022-07-26T02:15:07.914Z,100230.63
2022-07-26T02:18:19.067Z,100232.97
2022-07-26T02:21:24.484Z,100233.44
2022-07-26T02:24:31.104Z,100228.09
2022-07-26T02:27:36.331Z,100225.16
2022-07-26T02:30:41.908Z,100219.38
2022-07-26T02:33:47.485Z,100215.50
2022-07-26T02:36:53.086Z,100223.06
2022-07-26T02:39:59.762Z,100214.47
2022-07-26T02:43:05.554Z,100205.13
2022-07-26T02:46:11.876Z,100204.75
2022-07-26T02:49:17.129Z,100172.72
2022-07-26T02:52:22.737Z,100181.09
2022-07-26T02:55:29.342Z,100170.38
2022-07-26T02:58:34.778Z,100163.66
2022-07-26T03:01:40.377Z,100163.88
2022-07-26T03:04:46.209Z,100162.59
2022-07-26T03:07:51.624Z,100165.75
2022-07-26T03:10:58.505Z,100160.13
2022-07-26T03:14:04.051Z,100158.81
2022-07-26T03:17:09.174Z,100158.59
2022-07-26T03:20:15.833Z,100151.63
2022-07-26T03:23:21.105Z,100151.13
2022-07-26T03:26:29.346Z,100142.66
2022-07-26T03:29:34.494Z,100142.31
2022-07-26T03:32:40.335Z,100146.44
2022-07-26T03:35:45.733Z,100133.94
2022-07-26T03:38:53.878Z,100136.53
2022-07-26T03:42:00.737Z,100123.56
2022-07-26T03:45:07.175Z,100111.44
2022-07-26T03:48:12.972Z,100083.75
2022-07-26T03:51:18.409Z,100105.69
2022-07-26T03:54:23.926Z,100121.25
2022-07-26T03:57:29.526Z,100102.38
2022-07-26T04:00:35.173Z,100102.59
2022-07-26T04:03:44.419Z,100096.84
2022-07-26T04:06:52.777Z,100086.25
2022-07-26T04:09:58.362Z,100070.56
2022-07-26T04:13:04.904Z,100070.91
2022-07-26T04:16:11.153Z,100070.44
2022-07-26T04:19:16.346Z,100070.81
2022-07-26T04:22:21.569Z,100072.91
2022-07-26T04:25:27.274Z,100069.97
2022-07-26T04:28:49.989Z,100070.81
2022-07-26T04:31:55.115Z,100069.63
2022-07-26T04:35:00.257Z,100063.84
2022-07-26T04:38:05.732Z,100063.84
2022-07-26T04:41:10.984Z,100052.66
2022-07-26T04:44:17.464Z,100056.91
2022-07-26T04:47:22.670Z,100058.41
2022-07-26T04:50:28.855Z,100046.53
2022-07-26T04:53:34.048Z,100036.75
2022-07-26T04:56:39.184Z,100037.06
2022-07-26T04:59:50.457Z,100027.31
2022-07-26T05:03:04.608Z,100033.31
2022-07-26T05:06:10.039Z,100016.09
2022-07-26T05:09:15.753Z,100007.97
2022-07-26T05:12:21.123Z,99996.50
2022-07-26T05:15:35.469Z,100000.31
2022-07-26T05:18:49.078Z,99999.09
2022-07-26T05:21:54.712Z,99998.75
2022-07-26T05:25:00.287Z,99987.34
2022-07-26T05:28:06.377Z,99989.94
2022-07-26T05:31:13.063Z,100001.25
2022-07-26T05:34:18.840Z,99996.66
2022-07-26T05:37:23.986Z,100000.19
2022-07-26T05:40:29.151Z,99992.28
2022-07-26T05:43:40.759Z,99980.88
2022-07-26T05:46:47.740Z,99991.97
2022-07-26T05:49:52.945Z,99977.94
2022-07-26T05:52:58.153Z,99982.41
2022-07-26T05:56:03.245Z,99991.59
2022-07-26T05:59:08.608Z,99990.88
2022-07-26T06:02:15.201Z,99991.00
2022-07-26T06:05:21.035Z,99999.84
2022-07-26T06:08:27.891Z,100000.19
2022-07-26T06:11:33.229Z,100005.03
2022-07-26T06:14:38.714Z,100000.53
2022-07-26T06:17:45.334Z,99996.53
2022-07-26T06:20:51.138Z,100012.31
2022-07-26T06:23:56.265Z,100009.03
2022-07-26T06:27:05.029Z,100026.50
2022-07-26T06:30:13.973Z,100026.84
2022-07-26T06:33:20.496Z,100027.06
2022-07-26T06:36:30.345Z,100036.84
2022-07-26T06:39:36.461Z,100041.78
2022-07-26T06:42:41.820Z,100039.19
2022-07-26T06:45:47.028Z,100037.09
2022-07-26T06:48:57.065Z,100047.69
2022-07-26T06:52:02.425Z,100047.22
2022-07-26T06:55:09.052Z,100034.50
2022-07-26T06:58:17.928Z,100028.38
2022-07-26T07:01:58.551Z,100033.19
2022-07-26T07:04:50.189Z,100042.38
2022-07-26T07:07:56.253Z,100037.66
2022-07-26T07:11:02.555Z,100038.47
2022-07-26T07:14:09.510Z,100048.63
2022-07-26T07:17:20.378Z,100055.34
2022-07-26T07:20:28.473Z,100052.03
2022-07-26T07:23:34.758Z,100058.06
2022-07-26T07:26:39.877Z,100062.66
2022-07-26T07:29:45.639Z,100052.06
2022-07-26T07:32:51.216Z,100058.75
2022-07-26T07:35:57.749Z,100061.38
2022-07-26T07:39:06.663Z,100066.19
2022-07-26T07:42:14.106Z,100075.41
2022-07-26T07:45:19.405Z,100075.72
2022-07-26T07:48:24.605Z,100076.84
2022-07-26T07:51:31.214Z,100086.16
2022-07-26T07:54:36.540Z,100080.56
2022-07-26T07:57:41.838Z,100077.41
2022-07-26T08:00:48.186Z,100087.00
2022-07-26T08:03:53.512Z,100073.81
2022-07-26T08:07:00.085Z,100076.28
2022-07-26T08:10:08.136Z,100083.25
2022-07-26T08:13:15.702Z,100083.78
2022-07-26T08:16:26.838Z,100088.34
2022-07-26T08:19:42.001Z,100092.25
2022-07-26T08:22:50.605Z,100094.47
2022-07-26T08:25:58.045Z,100094.47
2022-07-26T08:29:05.152Z,100102.97
2022-07-26T08:32:12.393Z,100111.28
2022-07-26T08:35:20.043Z,100103.72
2022-07-26T08:38:26.892Z,100099.22
2022-07-26T08:41:32.520Z,100118.28
2022-07-26T08:44:37.984Z,100114.16
2022-07-26T08:48:07.524Z,100109.66
2022-07-26T08:51:11.074Z,100109.38
2022-07-26T08:54:17.975Z,100114.09
2022-07-26T08:57:23.199Z,100115.25
2022-07-26T09:00:32.029Z,100109.50
2022-07-26T09:03:38.795Z,100117.94
2022-07-26T09:06:57.789Z,100123.34
2022-07-26T09:10:08.104Z,100118.75
2022-07-26T09:13:13.777Z,100115.03
2022-07-26T09:16:19.234Z,100118.78
2022-07-26T09:19:24.607Z,100122.84
2022-07-26T09:22:30.017Z,100115.75
2022-07-26T09:25:39.748Z,100122.59
2022-07-26T09:28:45.328Z,100127.44
2022-07-26T09:31:50.657Z,100117.81
2022-07-26T09:34:59.035Z,100131.09
2022-07-26T09:38:14.249Z,100128.44
2022-07-26T09:41:25.383Z,100121.97
2022-07-26T09:44:30.744Z,100123.50
2022-07-26T09:47:40.509Z,100110.09
2022-07-26T09:50:50.094Z,100116.19
2022-07-26T09:53:55.143Z,100120.00
2022-07-26T09:57:02.101Z,100116.63
2022-07-26T10:00:09.314Z,100126.53
2022-07-26T10:03:18.093Z,100126.34
2022-07-26T10:06:27.295Z,100116.91
2022-07-26T10:09:43.575Z,100123.19
2022-07-26T10:12:53.177Z,100121.97
2022-07-26T10:16:00.635Z,100128.06
2022-07-26T10:19:08.197Z,100119.41
2022-07-26T10:22:26.867Z,100113.16
2022-07-26T10:25:49.128Z,100115.34
2022-07-26T10:28:55.821Z,100117.94
2022-07-26T10:32:20.580Z,100112.13
2022-07-26T10:35:33.024Z,100112.81
2022-07-26T10:38:39.465Z,100110.56
2022-07-26T10:41:47.517Z,100109.41
2022-07-26T10:44:54.109Z,100104.34
2022-07-26T10:48:13.339Z,100103.78
2022-07-26T10:51:27.905Z,100105.25
2022-07-26T10:54:33.463Z,100110.84
2022-07-26T10:57:40.734Z,100111.19
2022-07-26T11:00:58.709Z,100109.84
2022-07-26T11:04:04.349Z,100102.00
2022-07-26T11:07:12.873Z,100106.16
2022-07-26T11:10:23.625Z,100104.22
2022-07-26T11:13:29.125Z,100117.59
2022-07-26T11:16:41.072Z,100106.22
2022-07-26T11:19:46.684Z,100106.97
2022-07-26T11:22:51.864Z,100112.13
2022-07-26T11:26:08.777Z,100103.41
2022-07-26T11:29:17.375Z,100100.09
2022-07-26T11:32:26.711Z,100102.44
2022-07-26T11:35:32.008Z,100109.69
2022-07-26T11:39:01.402Z,100106.72
2022-07-26T11:42:09.115Z,100107.09
2022-07-26T11:45:16.755Z,100109.19
2022-07-26T11:48:23.537Z,100116.84
2022-07-26T11:51:29.404Z,100111.56
2022-07-26T11:54:46.111Z,100119.63
2022-07-26T11:57:51.836Z,100116.31
2022-07-26T12:00:57.300Z,100129.47
2022-07-26T12:04:04.379Z,100124.56
2022-07-26T12:07:15.198Z,100137.91
2022-07-26T12:10:21.462Z,100139.38
2022-07-26T12:13:26.730Z,100142.69
2022-07-26T12:16:45.961Z,100152.59
2022-07-26T12:19:52.603Z,100151.31
2022-07-26T12:23:00.617Z,100161.13
2022-07-26T12:26:21.652Z,100157.94
2022-07-26T12:29:34.193Z,100160.13
2022-07-26T12:32:42.432Z,100159.53
2022-07-26T12:35:49.144Z,100170.69
2022-07-26T12:38:54.388Z,100161.66
2022-07-26T12:41:59.557Z,100161.28
2022-07-26T12:45:08.620Z,100160.97
2022-07-26T12:48:14.225Z,100157.72
2022-07-26T12:51:20.903Z,100145.09
2022-07-26T12:54:29.474Z,100139.34
2022-07-26T12:57:36.864Z,100140.66
2022-07-26T13:00:42.703Z,100135.28
2022-07-26T13:03:47.825Z,100126.75
2022-07-26T13:06:54.253Z,100128.78
2022-07-26T13:10:31.250Z,100136.31
2022-07-26T13:13:25.288Z,100123.88
2022-07-26T13:16:30.588Z,100118.19
2022-07-26T13:19:36.794Z,100123.59
2022-07-26T13:22:43.454Z,100125.72
2022-07-26T13:25:49.738Z,100119.84
2022-07-26T13:28:55.174Z,100115.47
2022-07-26T13:32:00.582Z,100122.16
2022-07-26T13:35:06.305Z,100119.28
2022-07-26T13:38:16.415Z,100116.13
2022-07-26T13:41:21.623Z,100111.09
2022-07-26T13:44:26.859Z,100118.00
2022-07-26T13:47:32.057Z,100100.03
2022-07-26T13:50:37.528Z,100096.03
2022-07-26T13:53:55.165Z,100093.28
2022-07-26T13:57:03.799Z,100101.25
2022-07-26T14:00:12.973Z,100121.78
2022-07-26T14:03:18.973Z,100107.25
2022-07-26T14:06:24.054Z,100122.06
2022-07-26T14:09:30.584Z,100130.22
2022-07-26T14:12:37.245Z,100124.44
2022-07-26T14:15:42.777Z,100136.50
2022-07-26T14:18:48.194Z,100136.25
2022-07-26T14:21:59.280Z,100139.81
2022-07-26T14:25:08.048Z,100136.19
2022-07-26T14:28:13.886Z,100133.81
2022-07-26T14:31:19.573Z,100136.66
2022-07-26T14:34:24.742Z,100135.81
2022-07-26T14:37:43.538Z,100135.09
2022-07-26T14:40:51.827Z,100138.31
2022-07-26T14:43:56.977Z,100134.66
2022-07-26T14:47:02.397Z,100130.53
2022-07-26T14:50:16.339Z,100127.28
2022-07-26T14:53:22.356Z,100130.69
2022-07-26T14:56:29.024Z,100128.09
2022-07-26T14:59:34.538Z,100127.38
2022-07-26T15:02:40.979Z,100131.31
2022-07-26T15:05:46.598Z,100134.28
2022-07-26T15:08:51.670Z,100132.53
2022-07-26T15:11:58.544Z,100136.19
2022-07-26T15:15:03.790Z,100138.47
2022-07-26T15:18:10.045Z,100130.81
2022-07-26T15:21:16.166Z,100139.13
2022-07-26T15:24:21.462Z,100129.53
2022-07-26T15:27:31.091Z,100136.66
2022-07-26T15:30:37.530Z,100141.94
2022-07-26T15:33:42.692Z,100144.31
2022-07-26T15:36:47.739Z,100147.84
2022-07-26T15:39:53.052Z,100153.94
2022-07-26T15:43:00.133Z,100145.66
2022-07-26T15:46:05.537Z,100154.38
2022-07-26T15:49:14.198Z,100159.56
2022-07-26T15:52:19.683Z,100155.47
2022-07-26T15:55:25.177Z,100159.56
2022-07-26T15:58:32.902Z,100155.47
2022-07-26T16:01:39.143Z,100154.59
2022-07-26T16:04:44.674Z,100145.28
2022-07-26T16:07:49.994Z,100150.34
2022-07-26T16:10:55.102Z,100151.56
2022-07-26T16:14:02.164Z,100156.34
2022-07-26T16:17:07.980Z,100158.66
2022-07-26T16:20:13.385Z,100156.25
2022-07-26T16:23:18.696Z,100152.47
2022-07-26T16:26:25.844Z,100143.63
2022-07-26T16:29:32.489Z,100145.72
2022-07-26T16:32:38.221Z,100135.91
2022-07-26T16:35:43.425Z,100136.94
2022-07-26T16:38:48.614Z,100149.53
2022-07-26T16:41:53.776Z,100135.59
2022-07-26T16:45:00.553Z,100130.00
2022-07-26T16:48:06.797Z,100128.94
2022-07-26T16:51:13.573Z,100127.66
2022-07-26T16:54:18.899Z,100131.16
2022-07-26T16:57:24.783Z,100133.34
2022-07-26T17:00:31.429Z,100127.88
2022-07-26T17:03:36.679Z,100134.44
2022-07-26T17:06:52.128Z,100138.97
2022-07-26T17:10:10.561Z,100141.09
2022-07-26T17:13:16.574Z,100135.09
2022-07-26T17:16:24.383Z,100133.41
2022-07-26T17:19:30.143Z,100143.53
2022-07-26T17:22:35.535Z,100145.91
2022-07-26T17:25:40.737Z,100161.84
2022-07-26T17:28:46.535Z,100152.81
2022-07-26T17:31:55.052Z,100159.38
2022-07-26T17:35:00.710Z,100157.94
2022-07-26T17:38:06.245Z,100158.91
2022-07-26T17:41:17.394Z,100161.31
2022-07-26T17:44:24.128Z,100162.50
2022-07-26T17:47:30.935Z,100170.78
2022-07-26T17:50:38.219Z,100172.19
2022-07-26T17:53:44.146Z,100183.50
2022-07-26T17:56:49.364Z,100174.53
2022-07-26T17:59:54.933Z,100176.56
2022-07-26T18:03:01.450Z,100176.25
2022-07-26T18:06:07.929Z,100179.19
2022-07-26T18:09:14.361Z,100179.31
2022-07-26T18:12:20.035Z,100181.91
2022-07-26T18:15:25.605Z,100180.22
2022-07-26T18:18:32.098Z,100176.13
2022-07-26T18:21:37.248Z,100185.50
2022-07-26T18:24:42.691Z,100186.38
2022-07-26T18:27:47.868Z,100197.94
2022-07-26T18:30:53.089Z,100192.25
2022-07-26T18:34:05.932Z,100189.44
2022-07-26T18:37:12.525Z,100199.75
2022-07-26T18:40:17.837Z,100200.56
2022-07-26T18:43:23.016Z,100196.47
2022-07-26T18:46:28.545Z,100201.28
2022-07-26T18:49:35.924Z,100205.88
2022-07-26T18:52:41.299Z,100205.03
2022-07-26T18:55:46.544Z,100223.56
2022-07-26T18:58:51.687Z,100216.41
2022-07-26T19:01:58.894Z,100220.13
2022-07-26T19:05:06.549Z,100226.94
2022-07-26T19:08:14.066Z,100230.50
2022-07-26T19:11:19.232Z,100236.28
2022-07-26T19:14:24.397Z,100238.03
2022-07-26T19:17:32.845Z,100243.66
2022-07-26T19:20:39.805Z,100234.56
2022-07-26T19:23:45.327Z,100243.06
2022-07-26T19:26:50.683Z,100251.41
2022-07-26T19:29:56.955Z,100254.81
2022-07-26T19:33:02.728Z,100260.91
2022-07-26T19:36:10.025Z,100269.78
2022-07-26T19:39:15.816Z,100263.28
2022-07-26T19:42:21.768Z,100269.28
2022-07-26T19:45:27.822Z,100286.75
2022-07-26T19:48:33.156Z,100290.06
2022-07-26T19:51:41.248Z,100294.94
2022-07-26T19:54:46.729Z,100294.28
2022-07-26T19:57:51.847Z,100292.84
2022-07-26T20:00:57.217Z,100305.16
2022-07-26T20:04:03.357Z,100309.94
2022-07-26T20:07:10.135Z,100312.16
2022-07-26T20:10:15.913Z,100311.31
2022-07-26T20:13:21.351Z,100322.47
2022-07-26T20:16:26.797Z,100313.66
2022-07-26T20:19:32.080Z,100318.34
2022-07-26T20:22:38.641Z,100320.31
2022-07-26T20:25:43.934Z,100321.78
2022-07-26T20:28:50.688Z,100317.78
2022-07-26T20:31:55.899Z,100322.31
2022-07-26T20:35:01.062Z,100319.91
2022-07-26T20:38:07.876Z,100330.59
2022-07-26T20:41:13.445Z,100337.22
2022-07-26T20:44:22.984Z,100337.13
2022-07-26T20:47:31.593Z,100331.50
2022-07-26T20:50:37.218Z,100333.69
2022-07-26T20:53:44.285Z,100332.25
2022-07-26T20:56:49.773Z,100338.16
2022-07-26T20:59:54.894Z,100335.38
2022-07-26T21:03:00.150Z,100339.69
2022-07-26T21:06:05.858Z,100336.66
2022-07-26T21:09:13.372Z,100333.56
2022-07-26T21:12:18.911Z,100339.16
2022-07-26T21:15:24.487Z,100341.09
2022-07-26T21:18:30.045Z,100341.72
2022-07-26T21:21:37.159Z,100345.03
2022-07-26T21:24:43.760Z,100342.97
2022-07-26T21:27:49.075Z,100347.16
2022-07-26T21:30:54.386Z,100347.63
2022-07-26T21:33:59.961Z,100349.25
2022-07-26T21:37:06.300Z,100359.13
2022-07-26T21:40:14.539Z,100351.63
2022-07-26T21:43:20.901Z,100358.25
2022-07-26T21:46:26.248Z,100354.59
2022-07-26T21:49:31.339Z,100360.13
2022-07-26T21:52:36.590Z,100358.66
2022-07-26T21:55:43.462Z,100372.19
2022-07-26T21:58:49.047Z,100368.63
2022-07-26T22:01:54.188Z,100361.53
2022-07-26T22:05:01.246Z,100362.16
2022-07-26T22:08:09.079Z,100372.28
2022-07-26T22:11:16.124Z,100364.59
2022-07-26T22:14:21.679Z,100365.53
2022-07-26T22:17:26.820Z,100356.78
2022-07-26T22:20:34.375Z,100354.28
2022-07-26T22:23:39.508Z,100358.66
2022-07-26T22:26:46.076Z,100354.50
2022-07-26T22:29:51.281Z,100357.72
2022-07-26T22:32:57.417Z,100354.72
2022-07-26T22:36:02.561Z,100349.31
2022-07-26T22:39:09.130Z,100344.59
2022-07-26T22:42:16.395Z,100348.59
2022-07-26T22:45:22.151Z,100354.59
2022-07-26T22:48:28.323Z,100359.03
2022-07-26T22:51:33.533Z,100351.38
2022-07-26T22:54:41.790Z,100353.94
2022-07-26T22:57:49.351Z,100355.22
2022-07-26T23:00:55.288Z,100359.03
2022-07-26T23:04:00.887Z,100360.69
2022-07-26T23:07:06.702Z,100359.13
2022-07-26T23:10:14.062Z,100360.28
2022-07-26T23:13:20.568Z,100368.34
2022-07-26T23:16:25.874Z,100349.69
2022-07-26T23:19:31.339Z,100357.91
2022-07-26T23:22:37.121Z,100344.78
2022-07-26T23:25:42.337Z,100350.50
2022-07-26T23:28:48.850Z,100354.59
2022-07-26T23:31:54.202Z,100350.41
2022-07-26T23:34:59.722Z,100347.84
2022-07-26T23:38:05.119Z,100344.41
2022-07-26T23:41:12.406Z,100349.03
2022-07-26T23:44:19.165Z,100344.22
2022-07-26T23:47:24.974Z,100354.34
2022-07-26T23:50:30.351Z,100344.84
2022-07-26T23:53:35.719Z,100353.03
2022-07-26T23:56:40.960Z,100351.53
2022-07-26T23:59:47.574Z,100353.03
